sensor_id;sensor_type;location;lat;lon;timestamp;P1;durP1;ratioP1;P2;durP2;ratioP2
77146;SDS011;66121;52.584;9.694;2023-02-28T00:00:22;7.75;;;4.32;;
77146;SDS011;66121;52.584;9.694;2023-02-28T00:02:48;7.88;;;4.20;;
77146;SDS011;66121;52.584;9.694;2023-02-28T00:05:14;10.10;;;4.07;;
77146;SDS011;66121;52.584;9.694;2023-02-28T00:07:45;8.70;;;4.32;;
77146;SDS011;66121;52.584;9.694;2023-02-28T00:10:11;7.60;;;4.50;;
77146;SDS011;66121;52.584;9.694;2023-02-28T00:12:39;8.45;;;3.97;;
77146;SDS011;66121;52.584;9.694;2023-02-28T00:15:05;7.93;;;3.60;;
77146;SDS011;66121;52.584;9.694;2023-02-28T00:17:32;8.32;;;3.90;;
77146;SDS011;66121;52.584;9.694;2023-02-28T00:19:57;8.75;;;4.13;;
77146;SDS011;66121;52.584;9.694;2023-02-28T00:24:55;5.80;;;4.03;;
77146;SDS011;66121;52.584;9.694;2023-02-28T00:27:20;9.47;;;3.70;;
77146;SDS011;66121;52.584;9.694;2023-02-28T00:29:46;7.80;;;4.27;;
77146;SDS011;66121;52.584;9.694;2023-02-28T00:32:12;7.38;;;4.03;;
77146;SDS011;66121;52.584;9.694;2023-02-28T00:34:37;7.70;;;4.03;;
77146;SDS011;66121;52.584;9.694;2023-02-28T00:37:06;8.63;;;3.63;;
77146;SDS011;66121;52.584;9.694;2023-02-28T00:39:33;7.78;;;4.18;;
77146;SDS011;66121;52.584;9.694;2023-02-28T00:42:00;7.60;;;4.40;;
77146;SDS011;66121;52.584;9.694;2023-02-28T00:44:27;6.40;;;3.67;;
77146;SDS011;66121;52.584;9.694;2023-02-28T00:46:52;8.32;;;4.60;;
77146;SDS011;66121;52.584;9.694;2023-02-28T00:49:19;8.23;;;4.88;;
77146;SDS011;66121;52.584;9.694;2023-02-28T00:51:45;11.98;;;5.57;;
77146;SDS011;66121;52.584;9.694;2023-02-28T00:54:10;9.00;;;5.37;;
77146;SDS011;66121;52.584;9.694;2023-02-28T00:56:35;8.93;;;5.30;;
77146;SDS011;66121;52.584;9.694;2023-02-28T00:59:01;8.23;;;4.67;;
77146;SDS011;66121;52.584;9.694;2023-02-28T01:01:26;9.13;;;5.43;;
77146;SDS011;66121;52.584;9.694;2023-02-28T01:03:51;11.40;;;5.63;;
77146;SDS011;66121;52.584;9.694;2023-02-28T01:06:17;9.07;;;4.70;;
77146;SDS011;66121;52.584;9.694;2023-02-28T01:08:42;13.27;;;5.83;;
77146;SDS011;66121;52.584;9.694;2023-02-28T01:11:08;8.77;;;4.80;;
77146;SDS011;66121;52.584;9.694;2023-02-28T01:13:35;11.68;;;5.68;;
77146;SDS011;66121;52.584;9.694;2023-02-28T01:16:00;9.87;;;5.27;;
77146;SDS011;66121;52.584;9.694;2023-02-28T01:18:25;10.67;;;5.50;;
77146;SDS011;66121;52.584;9.694;2023-02-28T01:20:51;9.32;;;5.50;;
77146;SDS011;66121;52.584;9.694;2023-02-28T01:23:17;8.50;;;5.68;;
77146;SDS011;66121;52.584;9.694;2023-02-28T01:25:43;11.60;;;5.35;;
77146;SDS011;66121;52.584;9.694;2023-02-28T01:28:09;8.83;;;5.20;;
77146;SDS011;66121;52.584;9.694;2023-02-28T01:30:34;10.70;;;5.43;;
77146;SDS011;66121;52.584;9.694;2023-02-28T01:32:59;9.40;;;5.67;;
77146;SDS011;66121;52.584;9.694;2023-02-28T01:35:25;10.75;;;5.05;;
77146;SDS011;66121;52.584;9.694;2023-02-28T01:37:50;11.47;;;6.00;;
77146;SDS011;66121;52.584;9.694;2023-02-28T01:40:16;12.53;;;5.40;;
77146;SDS011;66121;52.584;9.694;2023-02-28T01:42:41;10.50;;;5.40;;
77146;SDS011;66121;52.584;9.694;2023-02-28T01:45:16;10.20;;;5.47;;
77146;SDS011;66121;52.584;9.694;2023-02-28T01:47:43;9.50;;;5.45;;
77146;SDS011;66121;52.584;9.694;2023-02-28T01:50:12;9.75;;;5.90;;
77146;SDS011;66121;52.584;9.694;2023-02-28T01:52:41;10.70;;;5.82;;
77146;SDS011;66121;52.584;9.694;2023-02-28T01:55:08;10.40;;;5.45;;
77146;SDS011;66121;52.584;9.694;2023-02-28T01:57:36;9.93;;;6.18;;
77146;SDS011;66121;52.584;9.694;2023-02-28T02:00:09;9.95;;;5.32;;
77146;SDS011;66121;52.584;9.694;2023-02-28T02:02:41;11.07;;;5.97;;
77146;SDS011;66121;52.584;9.694;2023-02-28T02:05:09;9.52;;;5.60;;
77146;SDS011;66121;52.584;9.694;2023-02-28T02:07:37;8.38;;;5.57;;
77146;SDS011;66121;52.584;9.694;2023-02-28T02:10:09;8.38;;;5.50;;
77146;SDS011;66121;52.584;9.694;2023-02-28T02:18:10;10.23;;;5.60;;
77146;SDS011;66121;52.584;9.694;2023-02-28T02:20:54;11.65;;;5.93;;
77146;SDS011;66121;52.584;9.694;2023-02-28T02:23:43;10.30;;;5.53;;
77146;SDS011;66121;52.584;9.694;2023-02-28T02:26:26;11.90;;;5.75;;
77146;SDS011;66121;52.584;9.694;2023-02-28T02:29:31;9.75;;;5.13;;
77146;SDS011;66121;52.584;9.694;2023-02-28T02:32:07;8.65;;;5.72;;
77146;SDS011;66121;52.584;9.694;2023-02-28T02:34:56;9.73;;;5.55;;
77146;SDS011;66121;52.584;9.694;2023-02-28T02:40:16;10.73;;;4.75;;
77146;SDS011;66121;52.584;9.694;2023-02-28T02:45:21;10.38;;;5.30;;
77146;SDS011;66121;52.584;9.694;2023-02-28T02:48:00;8.65;;;5.18;;
77146;SDS011;66121;52.584;9.694;2023-02-28T02:50:29;11.25;;;6.30;;
77146;SDS011;66121;52.584;9.694;2023-02-28T02:53:00;8.75;;;5.50;;
77146;SDS011;66121;52.584;9.694;2023-02-28T02:55:27;8.60;;;5.57;;
77146;SDS011;66121;52.584;9.694;2023-02-28T02:57:58;8.57;;;5.28;;
77146;SDS011;66121;52.584;9.694;2023-02-28T03:00:29;9.52;;;5.00;;
77146;SDS011;66121;52.584;9.694;2023-02-28T03:03:02;9.73;;;5.32;;
77146;SDS011;66121;52.584;9.694;2023-02-28T03:05:33;9.65;;;5.70;;
77146;SDS011;66121;52.584;9.694;2023-02-28T03:08:06;9.50;;;5.45;;
77146;SDS011;66121;52.584;9.694;2023-02-28T03:10:36;10.47;;;5.17;;
77146;SDS011;66121;52.584;9.694;2023-02-28T03:25:13;10.73;;;5.43;;
77146;SDS011;66121;52.584;9.694;2023-02-28T03:27:58;8.00;;;4.78;;
77146;SDS011;66121;52.584;9.694;2023-02-28T03:33:15;9.00;;;4.70;;
77146;SDS011;66121;52.584;9.694;2023-02-28T03:35:55;8.73;;;5.15;;
77146;SDS011;66121;52.584;9.694;2023-02-28T03:41:18;7.63;;;4.28;;
77146;SDS011;66121;52.584;9.694;2023-02-28T03:43:50;9.68;;;5.20;;
77146;SDS011;66121;52.584;9.694;2023-02-28T03:46:20;10.82;;;5.55;;
77146;SDS011;66121;52.584;9.694;2023-02-28T03:49:03;7.43;;;4.82;;
77146;SDS011;66121;52.584;9.694;2023-02-28T03:51:36;8.32;;;4.10;;
77146;SDS011;66121;52.584;9.694;2023-02-28T03:54:07;12.05;;;5.50;;
77146;SDS011;66121;52.584;9.694;2023-02-28T03:56:38;9.27;;;5.13;;
77146;SDS011;66121;52.584;9.694;2023-02-28T04:02:03;8.75;;;4.90;;
77146;SDS011;66121;52.584;9.694;2023-02-28T04:04:29;11.52;;;5.57;;
77146;SDS011;66121;52.584;9.694;2023-02-28T04:07:00;9.32;;;5.25;;
77146;SDS011;66121;52.584;9.694;2023-02-28T04:09:28;12.98;;;5.47;;
77146;SDS011;66121;52.584;9.694;2023-02-28T04:11:53;9.17;;;5.43;;
77146;SDS011;66121;52.584;9.694;2023-02-28T04:14:20;7.20;;;4.93;;
77146;SDS011;66121;52.584;9.694;2023-02-28T04:16:46;13.40;;;5.43;;
77146;SDS011;66121;52.584;9.694;2023-02-28T04:19:12;9.40;;;5.07;;
77146;SDS011;66121;52.584;9.694;2023-02-28T04:21:39;10.25;;;5.75;;
77146;SDS011;66121;52.584;9.694;2023-02-28T04:24:08;7.15;;;4.05;;
77146;SDS011;66121;52.584;9.694;2023-02-28T04:26:39;8.45;;;5.00;;
77146;SDS011;66121;52.584;9.694;2023-02-28T04:29:06;6.18;;;3.92;;
77146;SDS011;66121;52.584;9.694;2023-02-28T04:31:32;6.90;;;4.43;;
77146;SDS011;66121;52.584;9.694;2023-02-28T04:33:58;6.45;;;4.35;;
77146;SDS011;66121;52.584;9.694;2023-02-28T04:36:24;11.32;;;5.18;;
77146;SDS011;66121;52.584;9.694;2023-02-28T04:38:49;9.50;;;4.93;;
77146;SDS011;66121;52.584;9.694;2023-02-28T04:41:15;9.82;;;4.68;;
77146;SDS011;66121;52.584;9.694;2023-02-28T04:43:41;9.30;;;4.68;;
77146;SDS011;66121;52.584;9.694;2023-02-28T04:46:07;8.05;;;4.95;;
77146;SDS011;66121;52.584;9.694;2023-02-28T04:48:34;8.60;;;4.50;;
77146;SDS011;66121;52.584;9.694;2023-02-28T04:51:06;6.97;;;4.53;;
77146;SDS011;66121;52.584;9.694;2023-02-28T04:53:33;8.60;;;4.10;;
77146;SDS011;66121;52.584;9.694;2023-02-28T04:56:00;8.52;;;4.03;;
77146;SDS011;66121;52.584;9.694;2023-02-28T04:58:25;8.85;;;4.25;;
77146;SDS011;66121;52.584;9.694;2023-02-28T05:00:51;9.18;;;4.72;;
77146;SDS011;66121;52.584;9.694;2023-02-28T05:03:17;8.23;;;4.75;;
77146;SDS011;66121;52.584;9.694;2023-02-28T05:05:43;7.97;;;4.50;;
77146;SDS011;66121;52.584;9.694;2023-02-28T05:08:08;8.73;;;4.43;;
77146;SDS011;66121;52.584;9.694;2023-02-28T05:10:34;7.72;;;4.45;;
77146;SDS011;66121;52.584;9.694;2023-02-28T05:13:00;8.95;;;4.28;;
77146;SDS011;66121;52.584;9.694;2023-02-28T05:15:25;10.15;;;4.50;;
77146;SDS011;66121;52.584;9.694;2023-02-28T05:17:51;10.80;;;4.27;;
77146;SDS011;66121;52.584;9.694;2023-02-28T05:20:16;9.50;;;4.13;;
77146;SDS011;66121;52.584;9.694;2023-02-28T05:22:42;5.35;;;3.88;;
77146;SDS011;66121;52.584;9.694;2023-02-28T05:25:12;6.47;;;3.65;;
77146;SDS011;66121;52.584;9.694;2023-02-28T05:27:41;9.30;;;3.90;;
77146;SDS011;66121;52.584;9.694;2023-02-28T05:30:07;6.57;;;3.85;;
77146;SDS011;66121;52.584;9.694;2023-02-28T05:32:35;6.25;;;4.13;;
77146;SDS011;66121;52.584;9.694;2023-02-28T05:35:01;7.35;;;4.05;;
77146;SDS011;66121;52.584;9.694;2023-02-28T05:37:27;6.60;;;3.72;;
77146;SDS011;66121;52.584;9.694;2023-02-28T05:39:52;5.30;;;3.80;;
77146;SDS011;66121;52.584;9.694;2023-02-28T05:42:17;6.10;;;3.63;;
77146;SDS011;66121;52.584;9.694;2023-02-28T05:44:42;6.23;;;3.73;;
77146;SDS011;66121;52.584;9.694;2023-02-28T05:47:08;8.70;;;4.90;;
77146;SDS011;66121;52.584;9.694;2023-02-28T05:49:33;9.87;;;4.50;;
77146;SDS011;66121;52.584;9.694;2023-02-28T05:51:59;8.88;;;4.45;;
77146;SDS011;66121;52.584;9.694;2023-02-28T05:54:24;6.40;;;3.53;;
77146;SDS011;66121;52.584;9.694;2023-02-28T05:56:50;8.38;;;4.90;;
77146;SDS011;66121;52.584;9.694;2023-02-28T05:59:15;9.43;;;4.67;;
77146;SDS011;66121;52.584;9.694;2023-02-28T06:01:41;8.77;;;4.70;;
77146;SDS011;66121;52.584;9.694;2023-02-28T06:06:39;7.35;;;3.33;;
77146;SDS011;66121;52.584;9.694;2023-02-28T06:09:05;7.43;;;4.67;;
77146;SDS011;66121;52.584;9.694;2023-02-28T06:11:30;9.43;;;4.95;;
77146;SDS011;66121;52.584;9.694;2023-02-28T06:13:57;10.52;;;4.68;;
77146;SDS011;66121;52.584;9.694;2023-02-28T06:16:24;16.40;;;6.32;;
77146;SDS011;66121;52.584;9.694;2023-02-28T06:18:51;18.60;;;7.05;;
77146;SDS011;66121;52.584;9.694;2023-02-28T06:21:17;16.08;;;6.60;;
77146;SDS011;66121;52.584;9.694;2023-02-28T06:23:43;21.75;;;8.57;;
77146;SDS011;66121;52.584;9.694;2023-02-28T06:26:09;35.95;;;10.45;;
77146;SDS011;66121;52.584;9.694;2023-02-28T06:28:34;42.22;;;13.27;;
77146;SDS011;66121;52.584;9.694;2023-02-28T06:31:04;41.53;;;13.73;;
77146;SDS011;66121;52.584;9.694;2023-02-28T06:33:31;29.60;;;12.25;;
77146;SDS011;66121;52.584;9.694;2023-02-28T06:35:56;23.02;;;8.15;;
77146;SDS011;66121;52.584;9.694;2023-02-28T06:38:22;44.13;;;10.83;;
77146;SDS011;66121;52.584;9.694;2023-02-28T06:40:54;34.50;;;11.33;;
77146;SDS011;66121;52.584;9.694;2023-02-28T06:43:20;12.70;;;5.75;;
77146;SDS011;66121;52.584;9.694;2023-02-28T06:45:46;7.93;;;3.83;;
77146;SDS011;66121;52.584;9.694;2023-02-28T06:48:11;7.97;;;3.07;;
77146;SDS011;66121;52.584;9.694;2023-02-28T06:50:36;4.97;;;3.37;;
77146;SDS011;66121;52.584;9.694;2023-02-28T06:53:02;5.28;;;3.55;;
77146;SDS011;66121;52.584;9.694;2023-02-28T06:55:27;7.18;;;3.78;;
77146;SDS011;66121;52.584;9.694;2023-02-28T06:57:53;9.13;;;4.37;;
77146;SDS011;66121;52.584;9.694;2023-02-28T07:00:19;6.80;;;3.95;;
77146;SDS011;66121;52.584;9.694;2023-02-28T07:02:45;6.35;;;3.58;;
77146;SDS011;66121;52.584;9.694;2023-02-28T07:05:12;5.63;;;3.60;;
77146;SDS011;66121;52.584;9.694;2023-02-28T07:07:37;6.50;;;3.28;;
77146;SDS011;66121;52.584;9.694;2023-02-28T07:10:05;10.40;;;3.63;;
77146;SDS011;66121;52.584;9.694;2023-02-28T07:12:31;8.52;;;4.07;;
77146;SDS011;66121;52.584;9.694;2023-02-28T07:14:56;10.80;;;4.15;;
77146;SDS011;66121;52.584;9.694;2023-02-28T07:17:21;9.83;;;4.40;;
77146;SDS011;66121;52.584;9.694;2023-02-28T07:19:47;13.83;;;5.33;;
77146;SDS011;66121;52.584;9.694;2023-02-28T07:22:12;10.73;;;5.70;;
77146;SDS011;66121;52.584;9.694;2023-02-28T07:24:37;9.60;;;5.03;;
77146;SDS011;66121;52.584;9.694;2023-02-28T07:27:03;10.70;;;6.32;;
77146;SDS011;66121;52.584;9.694;2023-02-28T07:29:28;11.60;;;5.90;;
77146;SDS011;66121;52.584;9.694;2023-02-28T07:31:54;17.77;;;8.23;;
77146;SDS011;66121;52.584;9.694;2023-02-28T07:34:20;13.00;;;6.55;;
77146;SDS011;66121;52.584;9.694;2023-02-28T07:36:46;12.25;;;6.53;;
77146;SDS011;66121;52.584;9.694;2023-02-28T07:39:11;12.67;;;6.83;;
77146;SDS011;66121;52.584;9.694;2023-02-28T07:41:36;9.30;;;6.27;;
77146;SDS011;66121;52.584;9.694;2023-02-28T07:44:08;15.27;;;5.65;;
77146;SDS011;66121;52.584;9.694;2023-02-28T07:46:36;9.25;;;5.43;;
77146;SDS011;66121;52.584;9.694;2023-02-28T07:49:02;10.50;;;5.80;;
77146;SDS011;66121;52.584;9.694;2023-02-28T07:51:29;9.82;;;5.20;;
77146;SDS011;66121;52.584;9.694;2023-02-28T07:53:55;10.82;;;4.85;;
77146;SDS011;66121;52.584;9.694;2023-02-28T07:56:21;10.27;;;4.82;;
77146;SDS011;66121;52.584;9.694;2023-02-28T07:58:46;7.97;;;4.85;;
77146;SDS011;66121;52.584;9.694;2023-02-28T08:01:11;12.93;;;6.77;;
77146;SDS011;66121;52.584;9.694;2023-02-28T08:03:37;12.07;;;6.47;;
77146;SDS011;66121;52.584;9.694;2023-02-28T08:06:04;14.38;;;7.90;;
77146;SDS011;66121;52.584;9.694;2023-02-28T08:08:31;16.42;;;9.93;;
77146;SDS011;66121;52.584;9.694;2023-02-28T08:10:59;15.85;;;6.15;;
77146;SDS011;66121;52.584;9.694;2023-02-28T08:13:26;11.60;;;5.57;;
77146;SDS011;66121;52.584;9.694;2023-02-28T08:15:53;11.27;;;5.63;;
77146;SDS011;66121;52.584;9.694;2023-02-28T08:18:19;8.43;;;5.38;;
77146;SDS011;66121;52.584;9.694;2023-02-28T08:20:45;13.52;;;5.85;;
77146;SDS011;66121;52.584;9.694;2023-02-28T08:23:10;9.83;;;6.00;;
77146;SDS011;66121;52.584;9.694;2023-02-28T08:25:36;10.55;;;5.03;;
77146;SDS011;66121;52.584;9.694;2023-02-28T08:28:01;9.17;;;5.40;;
77146;SDS011;66121;52.584;9.694;2023-02-28T08:30:26;8.03;;;4.67;;
77146;SDS011;66121;52.584;9.694;2023-02-28T08:32:51;8.67;;;5.17;;
77146;SDS011;66121;52.584;9.694;2023-02-28T08:35:17;9.10;;;5.20;;
77146;SDS011;66121;52.584;9.694;2023-02-28T08:37:42;10.77;;;4.70;;
77146;SDS011;66121;52.584;9.694;2023-02-28T08:40:08;9.77;;;4.53;;
77146;SDS011;66121;52.584;9.694;2023-02-28T08:42:34;12.68;;;5.15;;
77146;SDS011;66121;52.584;9.694;2023-02-28T08:44:59;7.93;;;4.55;;
77146;SDS011;66121;52.584;9.694;2023-02-28T08:47:24;8.13;;;4.67;;
77146;SDS011;66121;52.584;9.694;2023-02-28T08:49:50;8.73;;;4.80;;
77146;SDS011;66121;52.584;9.694;2023-02-28T08:52:15;12.33;;;5.90;;
77146;SDS011;66121;52.584;9.694;2023-02-28T08:54:40;11.83;;;6.07;;
77146;SDS011;66121;52.584;9.694;2023-02-28T08:57:06;8.88;;;5.25;;
77146;SDS011;66121;52.584;9.694;2023-02-28T08:59:32;11.23;;;5.63;;
77146;SDS011;66121;52.584;9.694;2023-02-28T09:01:59;6.85;;;4.72;;
77146;SDS011;66121;52.584;9.694;2023-02-28T09:04:24;7.93;;;5.13;;
77146;SDS011;66121;52.584;9.694;2023-02-28T09:06:49;9.70;;;5.47;;
77146;SDS011;66121;52.584;9.694;2023-02-28T09:09:15;9.07;;;5.07;;
77146;SDS011;66121;52.584;9.694;2023-02-28T09:11:40;10.43;;;4.40;;
77146;SDS011;66121;52.584;9.694;2023-02-28T09:14:06;9.00;;;4.93;;
77146;SDS011;66121;52.584;9.694;2023-02-28T09:16:32;5.90;;;3.87;;
77146;SDS011;66121;52.584;9.694;2023-02-28T09:18:57;6.70;;;4.30;;
77146;SDS011;66121;52.584;9.694;2023-02-28T09:21:23;8.57;;;4.15;;
77146;SDS011;66121;52.584;9.694;2023-02-28T09:23:49;8.00;;;4.07;;
77146;SDS011;66121;52.584;9.694;2023-02-28T09:26:20;4.07;;;2.92;;
77146;SDS011;66121;52.584;9.694;2023-02-28T09:28:48;6.05;;;3.95;;
77146;SDS011;66121;52.584;9.694;2023-02-28T09:31:19;5.10;;;2.95;;
77146;SDS011;66121;52.584;9.694;2023-02-28T09:33:46;6.45;;;3.22;;
77146;SDS011;66121;52.584;9.694;2023-02-28T09:36:12;5.90;;;3.05;;
77146;SDS011;66121;52.584;9.694;2023-02-28T09:38:38;5.83;;;3.33;;
77146;SDS011;66121;52.584;9.694;2023-02-28T09:41:11;5.40;;;2.80;;
77146;SDS011;66121;52.584;9.694;2023-02-28T09:43:40;4.93;;;2.95;;
77146;SDS011;66121;52.584;9.694;2023-02-28T09:46:27;5.50;;;3.08;;
77146;SDS011;66121;52.584;9.694;2023-02-28T09:48:56;4.70;;;2.88;;
77146;SDS011;66121;52.584;9.694;2023-02-28T09:51:26;7.10;;;2.88;;
77146;SDS011;66121;52.584;9.694;2023-02-28T09:53:58;4.97;;;2.80;;
77146;SDS011;66121;52.584;9.694;2023-02-28T09:56:25;6.13;;;3.10;;
77146;SDS011;66121;52.584;9.694;2023-02-28T09:59:01;3.92;;;2.65;;
77146;SDS011;66121;52.584;9.694;2023-02-28T10:01:34;4.97;;;2.70;;
77146;SDS011;66121;52.584;9.694;2023-02-28T10:04:12;5.10;;;2.72;;
77146;SDS011;66121;52.584;9.694;2023-02-28T10:06:56;4.88;;;2.35;;
77146;SDS011;66121;52.584;9.694;2023-02-28T10:09:24;3.70;;;2.13;;
77146;SDS011;66121;52.584;9.694;2023-02-28T10:11:52;3.88;;;2.55;;
77146;SDS011;66121;52.584;9.694;2023-02-28T10:14:22;4.53;;;2.38;;
77146;SDS011;66121;52.584;9.694;2023-02-28T10:16:52;3.38;;;2.50;;
77146;SDS011;66121;52.584;9.694;2023-02-28T10:19:28;4.28;;;2.42;;
77146;SDS011;66121;52.584;9.694;2023-02-28T10:22:04;3.25;;;2.00;;
77146;SDS011;66121;52.584;9.694;2023-02-28T10:24:38;4.70;;;2.15;;
77146;SDS011;66121;52.584;9.694;2023-02-28T10:27:14;2.78;;;1.90;;
77146;SDS011;66121;52.584;9.694;2023-02-28T10:29:46;5.63;;;2.17;;
77146;SDS011;66121;52.584;9.694;2023-02-28T10:32:14;2.85;;;1.60;;
77146;SDS011;66121;52.584;9.694;2023-02-28T10:34:42;3.85;;;2.25;;
77146;SDS011;66121;52.584;9.694;2023-02-28T10:37:07;3.53;;;2.17;;
77146;SDS011;66121;52.584;9.694;2023-02-28T10:42:05;4.70;;;2.50;;
77146;SDS011;66121;52.584;9.694;2023-02-28T10:45:05;6.28;;;2.80;;
77146;SDS011;66121;52.584;9.694;2023-02-28T10:47:35;3.10;;;2.00;;
77146;SDS011;66121;52.584;9.694;2023-02-28T10:50:26;4.05;;;1.85;;
77146;SDS011;66121;52.584;9.694;2023-02-28T10:53:07;2.72;;;1.70;;
77146;SDS011;66121;52.584;9.694;2023-02-28T10:56:03;1.88;;;1.40;;
77146;SDS011;66121;52.584;9.694;2023-02-28T11:01:47;3.13;;;1.60;;
77146;SDS011;66121;52.584;9.694;2023-02-28T11:07:27;4.28;;;2.25;;
77146;SDS011;66121;52.584;9.694;2023-02-28T11:09:48;2.63;;;1.50;;
77146;SDS011;66121;52.584;9.694;2023-02-28T11:12:37;3.42;;;1.90;;
77146;SDS011;66121;52.584;9.694;2023-02-28T11:15:06;1.75;;;1.38;;
77146;SDS011;66121;52.584;9.694;2023-02-28T11:17:53;2.00;;;1.55;;
77146;SDS011;66121;52.584;9.694;2023-02-28T11:20:21;3.40;;;1.75;;
77146;SDS011;66121;52.584;9.694;2023-02-28T11:22:49;3.42;;;1.60;;
77146;SDS011;66121;52.584;9.694;2023-02-28T11:27:58;2.30;;;1.50;;
77146;SDS011;66121;52.584;9.694;2023-02-28T11:30:40;3.00;;;1.80;;
77146;SDS011;66121;52.584;9.694;2023-02-28T11:33:28;2.65;;;1.33;;
77146;SDS011;66121;52.584;9.694;2023-02-28T11:36:00;3.10;;;1.48;;
77146;SDS011;66121;52.584;9.694;2023-02-28T11:38:29;4.78;;;2.00;;
77146;SDS011;66121;52.584;9.694;2023-02-28T11:46:44;2.13;;;1.60;;
77146;SDS011;66121;52.584;9.694;2023-02-28T11:57:36;3.28;;;1.67;;
77146;SDS011;66121;52.584;9.694;2023-02-28T12:05:44;2.70;;;1.75;;
77146;SDS011;66121;52.584;9.694;2023-02-28T12:11:02;4.22;;;1.90;;
77146;SDS011;66121;52.584;9.694;2023-02-28T12:13:45;3.05;;;1.80;;
77146;SDS011;66121;52.584;9.694;2023-02-28T12:16:20;3.80;;;1.58;;
77146;SDS011;66121;52.584;9.694;2023-02-28T12:19:15;4.97;;;1.58;;
77146;SDS011;66121;52.584;9.694;2023-02-28T12:22:00;2.13;;;1.25;;
77146;SDS011;66121;52.584;9.694;2023-02-28T12:27:44;2.33;;;1.50;;
77146;SDS011;66121;52.584;9.694;2023-02-28T12:32:51;3.08;;;1.83;;
77146;SDS011;66121;52.584;9.694;2023-02-28T12:35:22;3.42;;;1.90;;
77146;SDS011;66121;52.584;9.694;2023-02-28T12:43:12;3.30;;;1.70;;
77146;SDS011;66121;52.584;9.694;2023-02-28T12:45:57;2.47;;;1.65;;
77146;SDS011;66121;52.584;9.694;2023-02-28T12:48:29;3.60;;;1.80;;
77146;SDS011;66121;52.584;9.694;2023-02-28T12:51:07;5.60;;;1.70;;
77146;SDS011;66121;52.584;9.694;2023-02-28T13:10:11;2.95;;;1.60;;
77146;SDS011;66121;52.584;9.694;2023-02-28T13:12:42;3.17;;;1.73;;
77146;SDS011;66121;52.584;9.694;2023-02-28T13:17:48;4.40;;;1.70;;
77146;SDS011;66121;52.584;9.694;2023-02-28T13:20:22;4.07;;;1.95;;
77146;SDS011;66121;52.584;9.694;2023-02-28T13:22:51;3.17;;;2.13;;
77146;SDS011;66121;52.584;9.694;2023-02-28T13:27:46;3.58;;;1.73;;
77146;SDS011;66121;52.584;9.694;2023-02-28T13:35:59;3.88;;;1.88;;
77146;SDS011;66121;52.584;9.694;2023-02-28T13:38:34;3.65;;;1.70;;
77146;SDS011;66121;52.584;9.694;2023-02-28T13:46:31;4.25;;;1.52;;
77146;SDS011;66121;52.584;9.694;2023-02-28T13:57:53;39.38;;;18.90;;
77146;SDS011;66121;52.584;9.694;2023-02-28T14:00:35;3.78;;;2.75;;
77146;SDS011;66121;52.584;9.694;2023-02-28T14:03:16;3.65;;;2.10;;
77146;SDS011;66121;52.584;9.694;2023-02-28T14:05:47;2.80;;;1.80;;
77146;SDS011;66121;52.584;9.694;2023-02-28T14:08:14;3.90;;;2.05;;
77146;SDS011;66121;52.584;9.694;2023-02-28T14:13:12;3.67;;;1.77;;
77146;SDS011;66121;52.584;9.694;2023-02-28T14:16:00;3.75;;;1.90;;
77146;SDS011;66121;52.584;9.694;2023-02-28T14:20:56;2.87;;;1.30;;
77146;SDS011;66121;52.584;9.694;2023-02-28T14:23:32;1.63;;;1.38;;
77146;SDS011;66121;52.584;9.694;2023-02-28T14:26:18;2.50;;;1.40;;
77146;SDS011;66121;52.584;9.694;2023-02-28T14:29:11;5.88;;;2.45;;
77146;SDS011;66121;52.584;9.694;2023-02-28T14:31:54;9.93;;;3.80;;
77146;SDS011;66121;52.584;9.694;2023-02-28T14:34:31;15.90;;;7.15;;
77146;SDS011;66121;52.584;9.694;2023-02-28T14:37:05;3.70;;;1.73;;
77146;SDS011;66121;52.584;9.694;2023-02-28T14:39:32;4.35;;;2.70;;
77146;SDS011;66121;52.584;9.694;2023-02-28T14:41:59;2.70;;;1.80;;
77146;SDS011;66121;52.584;9.694;2023-02-28T14:44:29;3.08;;;1.52;;
77146;SDS011;66121;52.584;9.694;2023-02-28T14:46:56;6.38;;;1.90;;
77146;SDS011;66121;52.584;9.694;2023-02-28T14:49:37;2.70;;;1.60;;
77146;SDS011;66121;52.584;9.694;2023-02-28T14:54:42;3.33;;;1.58;;
77146;SDS011;66121;52.584;9.694;2023-02-28T14:57:22;2.67;;;1.50;;
77146;SDS011;66121;52.584;9.694;2023-02-28T15:00:51;2.30;;;1.38;;
77146;SDS011;66121;52.584;9.694;2023-02-28T15:02:47;2.67;;;1.40;;
77146;SDS011;66121;52.584;9.694;2023-02-28T15:07:38;2.20;;;1.43;;
77146;SDS011;66121;52.584;9.694;2023-02-28T15:10:08;2.90;;;2.30;;
77146;SDS011;66121;52.584;9.694;2023-02-28T15:12:48;4.15;;;2.28;;
77146;SDS011;66121;52.584;9.694;2023-02-28T15:17:46;4.32;;;2.00;;
77146;SDS011;66121;52.584;9.694;2023-02-28T15:20:19;4.03;;;1.58;;
77146;SDS011;66121;52.584;9.694;2023-02-28T15:22:45;2.13;;;1.13;;
77146;SDS011;66121;52.584;9.694;2023-02-28T15:25:13;2.00;;;1.42;;
77146;SDS011;66121;52.584;9.694;2023-02-28T15:27:44;2.97;;;1.60;;
77146;SDS011;66121;52.584;9.694;2023-02-28T15:30:15;4.00;;;1.55;;
77146;SDS011;66121;52.584;9.694;2023-02-28T15:32:43;4.75;;;1.45;;
77146;SDS011;66121;52.584;9.694;2023-02-28T15:35:26;2.85;;;1.98;;
77146;SDS011;66121;52.584;9.694;2023-02-28T15:37:58;2.88;;;1.70;;
77146;SDS011;66121;52.584;9.694;2023-02-28T15:43:14;2.55;;;1.40;;
77146;SDS011;66121;52.584;9.694;2023-02-28T15:48:24;2.45;;;1.48;;
77146;SDS011;66121;52.584;9.694;2023-02-28T15:51:17;3.10;;;1.60;;
77146;SDS011;66121;52.584;9.694;2023-02-28T15:56:28;1.98;;;1.30;;
77146;SDS011;66121;52.584;9.694;2023-02-28T15:58:59;3.10;;;1.25;;
77146;SDS011;66121;52.584;9.694;2023-02-28T16:03:56;3.63;;;2.08;;
77146;SDS011;66121;52.584;9.694;2023-02-28T16:06:38;1.98;;;1.40;;
77146;SDS011;66121;52.584;9.694;2023-02-28T16:09:19;3.13;;;1.75;;
77146;SDS011;66121;52.584;9.694;2023-02-28T16:11:45;4.10;;;1.70;;
77146;SDS011;66121;52.584;9.694;2023-02-28T16:14:20;3.97;;;1.70;;
77146;SDS011;66121;52.584;9.694;2023-02-28T16:16:52;3.13;;;1.65;;
77146;SDS011;66121;52.584;9.694;2023-02-28T16:19:19;5.82;;;2.22;;
77146;SDS011;66121;52.584;9.694;2023-02-28T16:21:45;2.80;;;1.55;;
77146;SDS011;66121;52.584;9.694;2023-02-28T16:24:11;3.50;;;1.67;;
77146;SDS011;66121;52.584;9.694;2023-02-28T16:26:42;5.63;;;2.67;;
77146;SDS011;66121;52.584;9.694;2023-02-28T16:29:18;4.22;;;2.50;;
77146;SDS011;66121;52.584;9.694;2023-02-28T16:31:56;5.38;;;2.72;;
77146;SDS011;66121;52.584;9.694;2023-02-28T16:34:22;3.88;;;2.40;;
77146;SDS011;66121;52.584;9.694;2023-02-28T16:36:48;3.70;;;1.83;;
77146;SDS011;66121;52.584;9.694;2023-02-28T16:39:14;5.63;;;2.50;;
77146;SDS011;66121;52.584;9.694;2023-02-28T16:41:41;13.73;;;4.85;;
77146;SDS011;66121;52.584;9.694;2023-02-28T16:44:10;11.38;;;4.35;;
77146;SDS011;66121;52.584;9.694;2023-02-28T16:46:39;7.43;;;3.92;;
77146;SDS011;66121;52.584;9.694;2023-02-28T16:49:04;7.75;;;4.30;;
77146;SDS011;66121;52.584;9.694;2023-02-28T16:51:30;5.93;;;3.73;;
77146;SDS011;66121;52.584;9.694;2023-02-28T16:53:55;6.40;;;3.60;;
77146;SDS011;66121;52.584;9.694;2023-02-28T16:56:21;7.37;;;3.53;;
77146;SDS011;66121;52.584;9.694;2023-02-28T16:58:49;7.95;;;5.15;;
77146;SDS011;66121;52.584;9.694;2023-02-28T17:01:15;7.50;;;4.15;;
77146;SDS011;66121;52.584;9.694;2023-02-28T17:03:41;8.35;;;6.38;;
77146;SDS011;66121;52.584;9.694;2023-02-28T17:06:17;7.65;;;3.38;;
77146;SDS011;66121;52.584;9.694;2023-02-28T17:08:46;7.60;;;3.70;;
77146;SDS011;66121;52.584;9.694;2023-02-28T17:11:12;5.50;;;3.00;;
77146;SDS011;66121;52.584;9.694;2023-02-28T17:13:37;4.70;;;2.00;;
77146;SDS011;66121;52.584;9.694;2023-02-28T17:16:03;3.40;;;2.27;;
77146;SDS011;66121;52.584;9.694;2023-02-28T17:18:28;3.33;;;1.90;;
77146;SDS011;66121;52.584;9.694;2023-02-28T17:20:58;6.88;;;2.33;;
77146;SDS011;66121;52.584;9.694;2023-02-28T17:23:24;3.92;;;2.28;;
77146;SDS011;66121;52.584;9.694;2023-02-28T17:25:49;5.50;;;2.27;;